Glen Rose, TX (76043)

4:52 PM CDT on August 24, 2016 (GMT -0500)
Opossum Hollow | | Change Station

Elev 771 ft 32.25 °N, 97.83 °W | Updated 20 seconds ago

Scattered Clouds
Scattered Clouds
93.4 °F
Feels Like 99 °F
N
9.0
Wind Variable Wind from SSW
Gusts 11.0 mph

Today
High -- | Low -- °F
--% Chance of Precip.
Yesterday
High -- | Low -- °F
Precip. -- in
Pressure 30.04 in
Visibility 10.0 miles
Clouds Scattered Clouds 6000 ft
Heat Index 99 °F
Dew Point 69 °F
Humidity 46%
Rainfall 0.00 in
Snow Depth Not available.
7:01 AM 8:04 PM
Waning Gibbous, 53% visible
METAR KGDJ 242135Z AUTO 17013G18KT 10SM SCT060 35/18 A3004 RMK AO2 T03530184
Pressure 30.04 in
Visibility 10.0 miles
Clouds Scattered Clouds 6000 ft
Heat Index 99 °F
Dew Point 69 °F
Humidity 46%
Rainfall 0.00 in
Snow Depth Not available.
7:01 AM 8:04 PM
Waning Gibbous, 53% visible
METAR KGDJ 242135Z AUTO 17013G18KT 10SM SCT060 35/18 A3004 RMK AO2 T03530184

10-Day Weather Forecast

Almanac

Astronomy

Aug. 24, 2016 Rise Set
Actual Time
Civil Twilight
Nautical Twilight
Astronomical Twilight
Moon
Length of Visible Light
Length of Day
Tomorrow will be .
, % of the Moon is Illuminated

Today's Extremes

State Highs State Lows

Community

WunderPhotos

Upload Photos

1,934,722 photos uploaded!

WunderBlog® & News

Nearby

Air Quality

  Air Quality AQ Index Pollutant
Not available.

Snow Depth

Station Depth Elevation

Earthquake Activity

City Distance Mag. Time & Date
Minimum magnitude displayed is 2.5.

Coastal Water Temperatures

Place Temperature

Stations

Nearby Weather Stations

Station Location Temp. Windchill Dew Point Humidity Wind Precip. Elev Updated Type
                   

Watches & Warnings

There are currently no watches in effect.